Time;durP1;ratioP1;P1;durP2;ratioP2;P2;SDS_P1;SDS_P2;PMS_P1;PMS_P2;Temp;Humidity;BMP_temperature;BMP_pressure;BME280_temperature;BME280_humidity;BME280_pressure;Samples;Min_cycle;Max_cycle;Signal;HPM_P1;HPM_P2
2023/05/12 00:01:44;;;;;;;9.10;5.70;;;;;;;-128.00;-1.00;-1.00;105758;1251;1004955;-71
2023/05/12 00:04:10;;;;;;;8.20;6.50;;;;;;;-128.00;-1.00;-1.00;105716;1251;1004409;-71
2023/05/12 00:06:37;;;;;;;7.50;5.40;;;;;;;-128.00;-1.00;-1.00;105719;1251;1003829;-71
2023/05/12 00:09:05;;;;;;;11.40;5.90;;;;;;;-128.00;-1.00;-1.00;105527;1251;1005257;-70
2023/05/12 00:11:31;;;;;;;9.70;5.40;;;;;;;-128.00;-1.00;-1.00;105721;1251;1004163;-72
2023/05/12 00:13:58;;;;;;;12.40;6.20;;;;;;;-128.00;-1.00;-1.00;105556;1251;1004721;-70
2023/05/12 00:16:24;;;;;;;10.80;6.40;;;;;;;-128.00;-1.00;-1.00;105570;1253;1005561;-72
2023/05/12 00:18:51;;;;;;;8.00;6.10;;;;;;;-128.00;-1.00;-1.00;105702;1251;1003490;-70
2023/05/12 00:21:17;;;;;;;8.50;5.90;;;;;;;-128.00;-1.00;-1.00;105689;1251;1004537;-70
2023/05/12 00:23:44;;;;;;;9.20;5.90;;;;;;;-128.00;-1.00;-1.00;105729;1251;1004372;-71
2023/05/12 00:26:10;;;;;;;8.40;5.60;;;;;;;-128.00;-1.00;-1.00;105789;1251;1004332;-71
2023/05/12 00:28:37;;;;;;;9.40;6.60;;;;;;;-128.00;-1.00;-1.00;105710;1251;1004623;-71
2023/05/12 00:31:03;;;;;;;10.60;6.30;;;;;;;-128.00;-1.00;-1.00;105576;1251;1004288;-71
2023/05/12 00:33:30;;;;;;;10.00;6.60;;;;;;;-128.00;-1.00;-1.00;105620;1251;1004178;-71
2023/05/12 00:35:59;;;;;;;8.60;6.10;;;;;;;-128.00;-1.00;-1.00;105699;1251;1003803;-71
2023/05/12 00:38:26;;;;;;;10.70;6.50;;;;;;;-128.00;-1.00;-1.00;105539;1251;1060879;-70
2023/05/12 00:40:53;;;;;;;9.70;6.60;;;;;;;-128.00;-1.00;-1.00;105704;1251;1004682;-71
2023/05/12 00:43:19;;;;;;;7.40;5.90;;;;;;;-128.00;-1.00;-1.00;105721;1251;1003785;-71
2023/05/12 00:45:46;;;;;;;8.70;6.10;;;;;;;-128.00;-1.00;-1.00;105750;1251;1004410;-71
2023/05/12 00:48:12;;;;;;;9.40;6.10;;;;;;;-128.00;-1.00;-1.00;105627;1254;1004398;-71
2023/05/12 00:50:39;;;;;;;10.60;6.00;;;;;;;-128.00;-1.00;-1.00;105740;1251;1005253;-71
2023/05/12 00:53:06;;;;;;;8.90;6.90;;;;;;;-128.00;-1.00;-1.00;105775;1251;1004885;-71
2023/05/12 00:55:33;;;;;;;11.00;6.60;;;;;;;-128.00;-1.00;-1.00;105671;1251;1003390;-71
2023/05/12 00:57:59;;;;;;;8.60;6.10;;;;;;;-128.00;-1.00;-1.00;105740;1251;1005411;-71
2023/05/12 01:00:26;;;;;;;8.70;6.70;;;;;;;-128.00;-1.00;-1.00;105680;1251;1004407;-71
2023/05/12 01:02:52;;;;;;;7.90;6.50;;;;;;;-128.00;-1.00;-1.00;105737;1251;1004552;-71
2023/05/12 01:05:19;;;;;;;10.40;6.70;;;;;;;-128.00;-1.00;-1.00;105749;1251;1004406;-71
2023/05/12 01:07:46;;;;;;;10.50;6.20;;;;;;;-128.00;-1.00;-1.00;105705;1251;1003646;-71
2023/05/12 01:10:20;;;;;;;8.10;6.40;;;;;;;-128.00;-1.00;-1.00;105755;1251;1005013;-71
2023/05/12 01:12:47;;;;;;;9.50;6.40;;;;;;;-128.00;-1.00;-1.00;105780;1251;1047000;-71
2023/05/12 01:15:13;;;;;;;9.10;6.50;;;;;;;-128.00;-1.00;-1.00;105726;1251;1004399;-71
2023/05/12 01:17:51;;;;;;;8.80;6.90;;;;;;;-128.00;-1.00;-1.00;105657;1251;1003523;-71
2023/05/12 01:20:21;;;;;;;9.00;6.10;;;;;;;-128.00;-1.00;-1.00;105652;1251;1058721;-71
2023/05/12 01:22:48;;;;;;;8.30;6.40;;;;;;;-128.00;-1.00;-1.00;105553;1251;1045760;-71
2023/05/12 01:25:18;;;;;;;9.20;6.20;;;;;;;-128.00;-1.00;-1.00;105744;1251;1004524;-71
2023/05/12 01:27:45;;;;;;;7.60;6.60;;;;;;;-128.00;-1.00;-1.00;105734;1251;1061532;-71
2023/05/12 01:30:16;;;;;;;10.60;7.10;;;;;;;-128.00;-1.00;-1.00;105761;1251;1004132;-71
2023/05/12 01:32:43;;;;;;;7.40;6.60;;;;;;;-128.00;-1.00;-1.00;105633;1251;1058874;-72
2023/05/12 01:35:10;;;;;;;9.00;6.60;;;;;;;-128.00;-1.00;-1.00;105749;1251;1004103;-72
2023/05/12 01:37:36;;;;;;;10.10;6.20;;;;;;;-128.00;-1.00;-1.00;105737;1251;1004012;-72
2023/05/12 01:40:03;;;;;;;10.40;6.70;;;;;;;-128.00;-1.00;-1.00;105751;1251;1004099;-71
2023/05/12 01:42:30;;;;;;;11.70;6.70;;;;;;;-128.00;-1.00;-1.00;105745;1251;1004224;-72
2023/05/12 01:44:56;;;;;;;12.20;7.30;;;;;;;-128.00;-1.00;-1.00;105759;1251;1004017;-71
2023/05/12 01:47:23;;;;;;;9.40;6.80;;;;;;;-128.00;-1.00;-1.00;105738;1251;1005059;-71
2023/05/12 01:49:50;;;;;;;9.40;6.60;;;;;;;-128.00;-1.00;-1.00;105746;1251;1004866;-72
2023/05/12 01:52:16;;;;;;;8.40;6.80;;;;;;;-128.00;-1.00;-1.00;105753;1251;1004559;-71
2023/05/12 01:54:42;;;;;;;8.50;7.00;;;;;;;-128.00;-1.00;-1.00;105739;1251;1004007;-71
2023/05/12 01:57:09;;;;;;;7.30;6.00;;;;;;;-128.00;-1.00;-1.00;105722;1251;1004371;-71
2023/05/12 01:59:35;;;;;;;6.80;6.10;;;;;;;-128.00;-1.00;-1.00;105565;1251;1004550;-71
2023/05/12 02:02:02;;;;;;;8.40;6.20;;;;;;;-128.00;-1.00;-1.00;105762;1251;1003993;-71
2023/05/12 02:04:29;;;;;;;7.60;5.50;;;;;;;-128.00;-1.00;-1.00;105645;1251;1004696;-71
2023/05/12 02:06:55;;;;;;;9.40;5.80;;;;;;;-128.00;-1.00;-1.00;105735;1251;1004041;-71
2023/05/12 02:09:22;;;;;;;8.50;6.00;;;;;;;-128.00;-1.00;-1.00;105739;1251;1003717;-71
2023/05/12 02:11:48;;;;;;;8.70;6.50;;;;;;;-128.00;-1.00;-1.00;105632;1251;1004764;-71
2023/05/12 02:14:15;;;;;;;7.10;5.60;;;;;;;-128.00;-1.00;-1.00;105722;1251;1004351;-71
2023/05/12 02:16:42;;;;;;;9.60;6.30;;;;;;;-128.00;-1.00;-1.00;105743;1251;1004662;-70
2023/05/12 02:19:08;;;;;;;8.20;6.40;;;;;;;-128.00;-1.00;-1.00;105739;1251;1003385;-71
2023/05/12 02:21:34;;;;;;;10.90;6.50;;;;;;;-128.00;-1.00;-1.00;105730;1251;1004270;-72
2023/05/12 02:24:01;;;;;;;9.30;6.40;;;;;;;-128.00;-1.00;-1.00;105710;1251;1004385;-71
2023/05/12 02:26:27;;;;;;;7.50;6.00;;;;;;;-128.00;-1.00;-1.00;105756;1251;1004895;-71
2023/05/12 02:28:54;;;;;;;8.10;6.40;;;;;;;-128.00;-1.00;-1.00;105737;1251;1004210;-71
2023/05/12 02:31:20;;;;;;;6.40;5.70;;;;;;;-128.00;-1.00;-1.00;105726;1251;1004774;-70
2023/05/12 02:33:48;;;;;;;9.40;6.20;;;;;;;-128.00;-1.00;-1.00;105733;1251;1004768;-70
2023/05/12 02:36:14;;;;;;;9.50;6.60;;;;;;;-128.00;-1.00;-1.00;105758;1251;1004255;-71
2023/05/12 02:38:41;;;;;;;8.50;6.30;;;;;;;-128.00;-1.00;-1.00;105762;1251;1004172;-71
2023/05/12 02:41:08;;;;;;;7.80;5.40;;;;;;;-128.00;-1.00;-1.00;105685;1251;1004445;-70
2023/05/12 02:43:34;;;;;;;9.00;5.80;;;;;;;-128.00;-1.00;-1.00;105747;1251;1004390;-70
2023/05/12 02:46:01;;;;;;;10.10;6.50;;;;;;;-128.00;-1.00;-1.00;105507;1251;1004755;-71
2023/05/12 02:48:27;;;;;;;9.20;6.80;;;;;;;-128.00;-1.00;-1.00;105691;1251;1004784;-71
2023/05/12 02:50:53;;;;;;;7.40;6.70;;;;;;;-128.00;-1.00;-1.00;105708;1251;1004922;-71
2023/05/12 02:53:20;;;;;;;10.30;6.30;;;;;;;-128.00;-1.00;-1.00;105706;1251;1004389;-71
2023/05/12 02:55:47;;;;;;;8.10;6.20;;;;;;;-128.00;-1.00;-1.00;105724;1251;1004503;-71
2023/05/12 02:58:13;;;;;;;8.10;6.10;;;;;;;-128.00;-1.00;-1.00;105753;1251;1003979;-71
2023/05/12 03:00:40;;;;;;;7.50;6.30;;;;;;;-128.00;-1.00;-1.00;105713;1251;1004960;-71
2023/05/12 03:03:06;;;;;;;9.30;6.00;;;;;;;-128.00;-1.00;-1.00;105743;1251;1003985;-72
2023/05/12 03:05:33;;;;;;;9.80;7.10;;;;;;;-128.00;-1.00;-1.00;105735;1251;1003574;-71
2023/05/12 03:07:59;;;;;;;8.60;5.80;;;;;;;-128.00;-1.00;-1.00;105697;1251;1003660;-71
2023/05/12 03:10:26;;;;;;;7.30;6.00;;;;;;;-128.00;-1.00;-1.00;105497;1251;1003806;-71
2023/05/12 03:12:52;;;;;;;7.20;6.10;;;;;;;-128.00;-1.00;-1.00;105700;1251;1004087;-71
2023/05/12 03:15:19;;;;;;;9.90;6.80;;;;;;;-128.00;-1.00;-1.00;105744;1251;1005008;-72
2023/05/12 03:17:45;;;;;;;9.40;6.20;;;;;;;-128.00;-1.00;-1.00;105699;1251;1003952;-72
2023/05/12 03:20:12;;;;;;;8.70;6.70;;;;;;;-128.00;-1.00;-1.00;105710;1251;1006309;-72
2023/05/12 03:22:38;;;;;;;10.80;7.00;;;;;;;-128.00;-1.00;-1.00;105549;1251;1004717;-71
2023/05/12 03:25:08;;;;;;;9.70;7.60;;;;;;;-128.00;-1.00;-1.00;105748;1251;1004111;-71
2023/05/12 03:27:34;;;;;;;12.90;8.60;;;;;;;-128.00;-1.00;-1.00;105724;1251;1046871;-71
2023/05/12 03:30:03;;;;;;;16.20;12.90;;;;;;;-128.00;-1.00;-1.00;105758;1251;1004517;-71
2023/05/12 03:32:30;;;;;;;15.00;13.10;;;;;;;-128.00;-1.00;-1.00;105795;1251;1055867;-71
2023/05/12 03:34:57;;;;;;;12.50;8.80;;;;;;;-128.00;-1.00;-1.00;105584;1251;1004024;-71
2023/05/12 03:37:23;;;;;;;15.70;10.10;;;;;;;-128.00;-1.00;-1.00;105745;1251;1004274;-72
2023/05/12 03:39:50;;;;;;;12.50;9.40;;;;;;;-128.00;-1.00;-1.00;105771;1251;1004851;-72
2023/05/12 03:42:16;;;;;;;9.20;6.90;;;;;;;-128.00;-1.00;-1.00;105738;1251;1004243;-72
2023/05/12 03:44:43;;;;;;;15.00;9.10;;;;;;;-128.00;-1.00;-1.00;105582;1251;1004112;-71
2023/05/12 03:47:09;;;;;;;12.00;8.50;;;;;;;-128.00;-1.00;-1.00;105754;1251;1004396;-72
2023/05/12 03:49:36;;;;;;;10.80;8.20;;;;;;;-128.00;-1.00;-1.00;105487;1251;1004206;-72
2023/05/12 03:52:02;;;;;;;7.90;6.80;;;;;;;-128.00;-1.00;-1.00;105750;1251;1004096;-72
2023/05/12 03:54:29;;;;;;;8.20;6.00;;;;;;;-128.00;-1.00;-1.00;105744;1251;1004523;-71
2023/05/12 03:56:56;;;;;;;42.90;28.70;;;;;;;-128.00;-1.00;-1.00;105711;1251;1004917;-72
2023/05/12 03:59:22;;;;;;;10.70;9.30;;;;;;;-128.00;-1.00;-1.00;105680;1251;1003599;-71
2023/05/12 04:01:49;;;;;;;17.40;15.90;;;;;;;-128.00;-1.00;-1.00;105792;1251;1004248;-72
2023/05/12 04:04:15;;;;;;;11.30;10.30;;;;;;;-128.00;-1.00;-1.00;105573;1251;1004395;-72
2023/05/12 04:06:42;;;;;;;11.20;9.20;;;;;;;-128.00;-1.00;-1.00;105744;1251;1004022;-73
2023/05/12 04:09:09;;;;;;;11.20;8.50;;;;;;;-128.00;-1.00;-1.00;105752;1251;1003441;-72
2023/05/12 04:11:35;;;;;;;9.80;8.80;;;;;;;-128.00;-1.00;-1.00;105740;1251;1003906;-72
2023/05/12 04:14:02;;;;;;;10.40;6.90;;;;;;;-128.00;-1.00;-1.00;105759;1251;1004077;-71
2023/05/12 04:16:29;;;;;;;9.50;6.60;;;;;;;-128.00;-1.00;-1.00;105738;1251;1003667;-72
2023/05/12 04:18:56;;;;;;;9.10;6.70;;;;;;;-128.00;-1.00;-1.00;105726;1251;1003762;-72
2023/05/12 04:21:22;;;;;;;7.90;6.50;;;;;;;-128.00;-1.00;-1.00;105597;1251;1003914;-72
2023/05/12 04:23:52;;;;;;;6.90;6.30;;;;;;;-128.00;-1.00;-1.00;105737;1251;1004760;-72
2023/05/12 04:26:20;;;;;;;8.20;5.90;;;;;;;-128.00;-1.00;-1.00;105765;1251;1044943;-72
2023/05/12 04:28:47;;;;;;;10.20;6.50;;;;;;;-128.00;-1.00;-1.00;105775;1251;1003809;-72
2023/05/12 04:31:13;;;;;;;8.40;5.90;;;;;;;-128.00;-1.00;-1.00;105756;1251;1004222;-72
2023/05/12 04:33:40;;;;;;;6.40;5.90;;;;;;;-128.00;-1.00;-1.00;105803;1251;1005010;-72
2023/05/12 04:36:07;;;;;;;8.70;6.30;;;;;;;-128.00;-1.00;-1.00;105730;1251;1004328;-72
2023/05/12 04:38:33;;;;;;;6.00;5.50;;;;;;;-128.00;-1.00;-1.00;105736;1251;1003614;-72
2023/05/12 04:40:59;;;;;;;7.30;6.00;;;;;;;-128.00;-1.00;-1.00;105572;1251;1005838;-72
2023/05/12 04:43:26;;;;;;;6.90;6.20;;;;;;;-128.00;-1.00;-1.00;105743;1251;1003935;-73
2023/05/12 04:45:54;;;;;;;6.80;5.80;;;;;;;-128.00;-1.00;-1.00;105740;1251;1004804;-72
2023/05/12 04:48:20;;;;;;;9.60;5.80;;;;;;;-128.00;-1.00;-1.00;105743;1251;1004570;-72
2023/05/12 04:50:47;;;;;;;7.40;5.50;;;;;;;-128.00;-1.00;-1.00;105725;1251;1005041;-72
2023/05/12 04:53:15;;;;;;;11.40;6.50;;;;;;;-128.00;-1.00;-1.00;105809;1251;1005137;-72
2023/05/12 04:55:44;;;;;;;5.90;5.40;;;;;;;-128.00;-1.00;-1.00;105737;1251;1004454;-72
2023/05/12 04:58:12;;;;;;;8.70;5.70;;;;;;;-128.00;-1.00;-1.00;105776;1252;1056089;-71
2023/05/12 05:00:39;;;;;;;6.30;5.70;;;;;;;-128.00;-1.00;-1.00;105730;1251;1004688;-73
2023/05/12 05:03:05;;;;;;;7.40;6.40;;;;;;;-128.00;-1.00;-1.00;105758;1251;1004675;-71
2023/05/12 05:05:32;;;;;;;9.80;8.40;;;;;;;-128.00;-1.00;-1.00;105748;1251;1004692;-71
2023/05/12 05:07:59;;;;;;;8.60;6.20;;;;;;;-128.00;-1.00;-1.00;105725;1251;1004839;-72
2023/05/12 05:10:25;;;;;;;8.50;5.90;;;;;;;-128.00;-1.00;-1.00;105721;1251;1004391;-72
2023/05/12 05:12:52;;;;;;;6.60;5.50;;;;;;;-128.00;-1.00;-1.00;105728;1251;1004424;-72
2023/05/12 05:15:19;;;;;;;8.40;5.90;;;;;;;-128.00;-1.00;-1.00;105747;1251;1003623;-74
2023/05/12 05:17:48;;;;;;;7.70;5.50;;;;;;;-128.00;-1.00;-1.00;105792;1251;1004533;-72
2023/05/12 05:20:15;;;;;;;7.40;6.20;;;;;;;-128.00;-1.00;-1.00;105604;1251;1061021;-71
2023/05/12 05:22:42;;;;;;;7.30;5.40;;;;;;;-128.00;-1.00;-1.00;105758;1251;1004620;-72
2023/05/12 05:25:09;;;;;;;9.00;6.20;;;;;;;-128.00;-1.00;-1.00;105743;1251;1004994;-71
2023/05/12 05:27:37;;;;;;;9.30;5.90;;;;;;;-128.00;-1.00;-1.00;105707;1251;1004189;-72
2023/05/12 05:30:10;;;;;;;7.70;5.40;;;;;;;-128.00;-1.00;-1.00;105742;1251;1005198;-72
2023/05/12 05:32:39;;;;;;;8.30;5.70;;;;;;;-128.00;-1.00;-1.00;105740;1251;1061019;-72
2023/05/12 05:35:06;;;;;;;11.00;6.30;;;;;;;-128.00;-1.00;-1.00;105772;1251;1004243;-71
2023/05/12 05:37:33;;;;;;;8.10;5.80;;;;;;;-128.00;-1.00;-1.00;105726;1255;1004260;-72
2023/05/12 05:40:00;;;;;;;9.60;6.20;;;;;;;-128.00;-1.00;-1.00;105738;1251;1004567;-72
2023/05/12 05:42:26;;;;;;;6.60;5.70;;;;;;;-128.00;-1.00;-1.00;105715;1251;1004433;-72
2023/05/12 05:44:53;;;;;;;7.50;6.20;;;;;;;-128.00;-1.00;-1.00;105794;1251;1005028;-72
2023/05/12 05:47:19;;;;;;;14.80;11.40;;;;;;;-128.00;-1.00;-1.00;105775;1251;1003816;-72
2023/05/12 05:49:45;;;;;;;8.90;6.50;;;;;;;-128.00;-1.00;-1.00;105529;1251;1004203;-71
2023/05/12 05:52:12;;;;;;;8.50;6.00;;;;;;;-128.00;-1.00;-1.00;105699;1252;1004670;-70
2023/05/12 05:54:38;;;;;;;9.80;5.70;;;;;;;-128.00;-1.00;-1.00;105720;1251;1004541;-71
2023/05/12 05:57:05;;;;;;;7.30;4.80;;;;;;;-128.00;-1.00;-1.00;105777;1251;1003903;-71
2023/05/12 05:59:32;;;;;;;9.10;5.70;;;;;;;-128.00;-1.00;-1.00;105600;1251;1004008;-71
2023/05/12 06:01:58;;;;;;;7.00;4.60;;;;;;;-128.00;-1.00;-1.00;105725;1251;1004588;-71
2023/05/12 06:04:25;;;;;;;5.10;4.60;;;;;;;-128.00;-1.00;-1.00;105789;1251;1003893;-72
2023/05/12 06:06:51;;;;;;;5.60;4.50;;;;;;;-128.00;-1.00;-1.00;105701;1251;1004557;-71
2023/05/12 06:09:18;;;;;;;8.20;5.00;;;;;;;-128.00;-1.00;-1.00;105740;1251;1005129;-71
2023/05/12 06:11:44;;;;;;;5.30;4.80;;;;;;;-128.00;-1.00;-1.00;105733;1251;1004649;-71
2023/05/12 06:14:11;;;;;;;7.50;4.90;;;;;;;-128.00;-1.00;-1.00;105767;1251;1003422;-71
2023/05/12 06:16:38;;;;;;;7.90;5.40;;;;;;;-128.00;-1.00;-1.00;105763;1251;1004352;-72
2023/05/12 06:19:04;;;;;;;6.10;4.70;;;;;;;-128.00;-1.00;-1.00;105743;1251;1003847;-72
2023/05/12 06:21:32;;;;;;;5.70;4.40;;;;;;;-128.00;-1.00;-1.00;105800;1251;1004084;-72
2023/05/12 06:23:58;;;;;;;7.10;4.70;;;;;;;-128.00;-1.00;-1.00;105816;1251;1004832;-71
2023/05/12 06:26:25;;;;;;;6.00;5.00;;;;;;;-128.00;-1.00;-1.00;105767;1251;1003636;-72
2023/05/12 06:28:51;;;;;;;9.40;5.00;;;;;;;-128.00;-1.00;-1.00;105769;1251;1003456;-71
2023/05/12 06:31:18;;;;;;;6.30;4.50;;;;;;;-128.00;-1.00;-1.00;105767;1252;1003580;-71
2023/05/12 06:33:44;;;;;;;10.40;5.00;;;;;;;-128.00;-1.00;-1.00;105805;1251;1004870;-72
2023/05/12 06:36:11;;;;;;;6.10;4.50;;;;;;;-128.00;-1.00;-1.00;105784;1251;1003987;-72
2023/05/12 06:38:37;;;;;;;6.80;4.40;;;;;;;-128.00;-1.00;-1.00;105709;1251;1004702;-72
2023/05/12 06:41:04;;;;;;;8.90;4.80;;;;;;;-128.00;-1.00;-1.00;105744;1251;1004967;-72
2023/05/12 06:43:31;;;;;;;5.20;4.40;;;;;;;-128.00;-1.00;-1.00;105786;1252;1004240;-73
2023/05/12 06:45:57;;;;;;;6.20;4.50;;;;;;;-128.00;-1.00;-1.00;105584;1251;1003499;-72
2023/05/12 06:48:24;;;;;;;5.50;5.00;;;;;;;-128.00;-1.00;-1.00;105770;1251;1004299;-72
2023/05/12 06:50:50;;;;;;;16.40;11.40;;;;;;;-128.00;-1.00;-1.00;105701;1251;1003480;-72
2023/05/12 06:53:17;;;;;;;15.00;11.90;;;;;;;-128.00;-1.00;-1.00;105746;1251;1004445;-72
2023/05/12 06:55:45;;;;;;;4.90;4.20;;;;;;;-128.00;-1.00;-1.00;105740;1251;1004414;-72
2023/05/12 06:58:11;;;;;;;6.40;5.00;;;;;;;-128.00;-1.00;-1.00;105790;1251;1005998;-72
2023/05/12 07:00:38;;;;;;;4.50;3.80;;;;;;;-128.00;-1.00;-1.00;105755;1252;1004611;-72
2023/05/12 07:03:04;;;;;;;5.80;4.60;;;;;;;-128.00;-1.00;-1.00;105739;1251;1003841;-72
2023/05/12 07:05:31;;;;;;;6.90;4.50;;;;;;;-128.00;-1.00;-1.00;105710;1251;1004277;-73
2023/05/12 07:07:58;;;;;;;7.90;4.20;;;;;;;-128.00;-1.00;-1.00;105758;1251;1004213;-71
2023/05/12 07:10:24;;;;;;;7.40;4.60;;;;;;;-128.00;-1.00;-1.00;105735;1251;1004608;-72
2023/05/12 07:12:52;;;;;;;9.40;5.30;;;;;;;-128.00;-1.00;-1.00;105713;1251;1004467;-74
2023/05/12 07:15:18;;;;;;;8.70;3.90;;;;;;;-128.00;-1.00;-1.00;105743;1251;1003662;-72
2023/05/12 07:17:44;;;;;;;6.70;4.00;;;;;;;-128.00;-1.00;-1.00;105576;1251;1004315;-71
2023/05/12 07:20:11;;;;;;;7.60;4.70;;;;;;;-128.00;-1.00;-1.00;105794;1251;1003700;-71
2023/05/12 07:22:38;;;;;;;7.80;4.30;;;;;;;-128.00;-1.00;-1.00;105772;1251;1004300;-71
2023/05/12 07:25:06;;;;;;;3.90;3.50;;;;;;;-128.00;-1.00;-1.00;105769;1251;1004421;-71
2023/05/12 07:27:33;;;;;;;5.60;4.70;;;;;;;-128.00;-1.00;-1.00;105767;1251;1004338;-71
2023/05/12 07:29:59;;;;;;;6.50;3.80;;;;;;;-128.00;-1.00;-1.00;105761;1251;1004552;-71
2023/05/12 07:32:26;;;;;;;5.20;4.00;;;;;;;-128.00;-1.00;-1.00;105770;1251;1004615;-71
2023/05/12 07:34:52;;;;;;;11.20;5.10;;;;;;;-128.00;-1.00;-1.00;105753;1251;1003681;-71
2023/05/12 07:37:19;;;;;;;5.30;4.00;;;;;;;-128.00;-1.00;-1.00;105777;1251;1004032;-71
2023/05/12 07:39:45;;;;;;;4.40;3.70;;;;;;;-128.00;-1.00;-1.00;105730;1251;1005239;-71
2023/05/12 07:42:12;;;;;;;4.60;4.10;;;;;;;-128.00;-1.00;-1.00;105717;1251;1004104;-71
2023/05/12 07:44:38;;;;;;;5.80;4.00;;;;;;;-128.00;-1.00;-1.00;105789;1251;1004307;-72
2023/05/12 07:47:05;;;;;;;6.30;3.90;;;;;;;-128.00;-1.00;-1.00;105769;1252;1003487;-71
2023/05/12 07:49:32;;;;;;;5.70;4.10;;;;;;;-128.00;-1.00;-1.00;105742;1251;1004493;-71
2023/05/12 07:51:59;;;;;;;7.80;4.00;;;;;;;-128.00;-1.00;-1.00;105744;1251;1004174;-71
2023/05/12 07:54:25;;;;;;;7.20;3.90;;;;;;;-128.00;-1.00;-1.00;105730;1251;1004875;-71
2023/05/12 07:56:52;;;;;;;5.50;3.50;;;;;;;-128.00;-1.00;-1.00;105791;1251;1004428;-72
2023/05/12 07:59:18;;;;;;;6.40;3.90;;;;;;;-128.00;-1.00;-1.00;105740;1251;1004677;-72
2023/05/12 08:01:45;;;;;;;7.00;4.20;;;;;;;-128.00;-1.00;-1.00;105760;1252;1004152;-71
2023/05/12 08:04:11;;;;;;;4.60;3.40;;;;;;;-128.00;-1.00;-1.00;105665;1251;1004802;-72
2023/05/12 08:06:38;;;;;;;8.00;4.60;;;;;;;-128.00;-1.00;-1.00;105473;1251;1003919;-71
2023/05/12 08:09:04;;;;;;;9.40;4.00;;;;;;;-128.00;-1.00;-1.00;105730;1251;1004502;-71
2023/05/12 08:11:31;;;;;;;12.10;5.00;;;;;;;-128.00;-1.00;-1.00;105755;1251;1004613;-71
2023/05/12 08:13:57;;;;;;;6.60;4.10;;;;;;;-128.00;-1.00;-1.00;105447;1252;1004865;-71
2023/05/12 08:16:24;;;;;;;5.30;4.00;;;;;;;-128.00;-1.00;-1.00;105686;1252;1004653;-71
2023/05/12 08:18:51;;;;;;;4.20;3.50;;;;;;;-128.00;-1.00;-1.00;105716;1252;1004482;-71
2023/05/12 08:21:17;;;;;;;5.80;4.10;;;;;;;-128.00;-1.00;-1.00;105673;1252;1003321;-72
2023/05/12 08:23:44;;;;;;;7.00;4.30;;;;;;;-128.00;-1.00;-1.00;105714;1252;1003597;-71
2023/05/12 08:26:10;;;;;;;9.40;3.60;;;;;;;-128.00;-1.00;-1.00;105667;1252;1006939;-73
2023/05/12 08:28:37;;;;;;;4.90;3.60;;;;;;;-128.00;-1.00;-1.00;105494;1252;1004155;-72
2023/05/12 08:31:03;;;;;;;6.10;3.60;;;;;;;-128.00;-1.00;-1.00;105701;1252;1004096;-71
2023/05/12 08:33:30;;;;;;;4.30;3.90;;;;;;;-128.00;-1.00;-1.00;105700;1252;1004477;-71
2023/05/12 08:35:56;;;;;;;10.40;4.90;;;;;;;-128.00;-1.00;-1.00;105721;1252;1004274;-71
2023/05/12 08:38:23;;;;;;;6.70;3.90;;;;;;;-128.00;-1.00;-1.00;105714;1253;1004823;-71
2023/05/12 08:41:16;;;;;;;8.30;3.90;;;;;;;-128.00;-1.00;-1.00;105728;1252;1004029;-71
2023/05/12 08:43:45;;;;;;;6.00;4.20;;;;;;;-128.00;-1.00;-1.00;105744;1252;1046148;-71
2023/05/12 08:46:12;;;;;;;11.40;4.70;;;;;;;-128.00;-1.00;-1.00;105732;1252;1046322;-70
2023/05/12 08:48:39;;;;;;;5.40;4.20;;;;;;;-128.00;-1.00;-1.00;105724;1252;1004891;-70
2023/05/12 08:51:09;;;;;;;9.20;4.80;;;;;;;-128.00;-1.00;-1.00;105689;1252;1003829;-71
2023/05/12 08:53:37;;;;;;;6.80;4.90;;;;;;;-128.00;-1.00;-1.00;105686;1252;1059146;-73
2023/05/12 08:56:08;;;;;;;8.50;4.70;;;;;;;-128.00;-1.00;-1.00;105727;1252;1004153;-72
2023/05/12 08:58:35;;;;;;;7.70;4.40;;;;;;;-128.00;-1.00;-1.00;105733;1252;1048200;-72
2023/05/12 09:01:06;;;;;;;6.90;4.50;;;;;;;-128.00;-1.00;-1.00;105479;1252;1004066;-72
2023/05/12 09:03:33;;;;;;;8.90;4.90;;;;;;;-128.00;-1.00;-1.00;105681;1252;1055617;-72
2023/05/12 09:06:00;;;;;;;8.20;5.30;;;;;;;-128.00;-1.00;-1.00;105729;1252;1003558;-71
2023/05/12 09:08:29;;;;;;;8.50;5.10;;;;;;;-128.00;-1.00;-1.00;105661;1252;1003306;-71
2023/05/12 09:10:56;;;;;;;6.70;4.10;;;;;;;-128.00;-1.00;-1.00;105689;1252;1004829;-71
2023/05/12 09:13:32;;;;;;;6.70;4.10;;;;;;;-128.00;-1.00;-1.00;105767;1251;1004466;-72
2023/05/12 09:16:01;;;;;;;9.30;4.30;;;;;;;-128.00;-1.00;-1.00;105715;1251;1055901;-72
2023/05/12 09:18:54;;;;;;;6.50;4.10;;;;;;;-128.00;-1.00;-1.00;105743;1251;1058951;-71
2023/05/12 09:21:22;;;;;;;8.50;4.50;;;;;;;-128.00;-1.00;-1.00;105171;1259;1045588;-71
2023/05/12 09:23:54;;;;;;;13.30;4.70;;;;;;;-128.00;-1.00;-1.00;105176;1263;1003994;-72
2023/05/12 09:26:22;;;;;;;15.60;4.90;;;;;;;-128.00;-1.00;-1.00;105169;1258;1061604;-72
2023/05/12 09:28:49;;;;;;;7.70;4.10;;;;;;;-128.00;-1.00;-1.00;105067;1258;1004886;-73
2023/05/12 09:31:18;;;;;;;6.60;3.80;;;;;;;-128.00;-1.00;-1.00;105074;1259;1004426;-73
2023/05/12 09:33:44;;;;;;;6.20;3.80;;;;;;;-128.00;-1.00;-1.00;105017;1260;1003863;-73
2023/05/12 09:36:15;;;;;;;6.40;3.90;;;;;;;-128.00;-1.00;-1.00;105192;1258;1004308;-72
2023/05/12 09:38:42;;;;;;;4.30;3.50;;;;;;;-128.00;-1.00;-1.00;105204;1258;1060765;-74
2023/05/12 09:41:08;;;;;;;4.20;3.10;;;;;;;-128.00;-1.00;-1.00;105159;1258;1004524;-73
2023/05/12 09:43:35;;;;;;;4.30;3.20;;;;;;;-128.00;-1.00;-1.00;105163;1258;1004088;-73
2023/05/12 09:46:05;;;;;;;7.50;3.40;;;;;;;-128.00;-1.00;-1.00;105164;1259;1004305;-74
2023/05/12 09:48:32;;;;;;;;;;;;;;;-128.00;-1.00;-1.00;105179;1259;1046881;-73
2023/05/12 09:50:59;;;;;;;5.00;3.30;;;;;;;-128.00;-1.00;-1.00;105160;1260;1005123;-74
2023/05/12 09:53:25;;;;;;;6.80;2.50;;;;;;;-128.00;-1.00;-1.00;105157;1260;1005158;-74
2023/05/12 09:55:52;;;;;;;19.10;4.00;;;;;;;-128.00;-1.00;-1.00;105109;1258;1003742;-73
2023/05/12 09:58:19;;;;;;;9.80;3.30;;;;;;;-128.00;-1.00;-1.00;105389;1256;1003733;-74
2023/05/12 10:00:46;;;;;;;3.90;2.90;;;;;;;-128.00;-1.00;-1.00;105524;1251;1004998;-74
2023/05/12 10:03:15;;;;;;;5.70;2.60;;;;;;;-128.00;-1.00;-1.00;105751;1251;1003630;-74
2023/05/12 10:05:48;;;;;;;4.20;3.60;;;;;;;-128.00;-1.00;-1.00;105717;1253;1055822;-74
2023/05/12 10:08:41;;;;;;;5.10;3.00;;;;;;;-128.00;-1.00;-1.00;105757;1251;1059374;-74
2023/05/12 10:11:08;;;;;;;4.40;3.00;;;;;;;-128.00;-1.00;-1.00;105695;1251;1045069;-74
2023/05/12 10:13:35;;;;;;;3.40;2.30;;;;;;;-128.00;-1.00;-1.00;105636;1251;1004585;-74
2023/05/12 10:16:02;;;;;;;8.90;2.50;;;;;;;-128.00;-1.00;-1.00;105723;1251;1003885;-73
2023/05/12 10:18:30;;;;;;;2.60;2.20;;;;;;;-128.00;-1.00;-1.00;105698;1251;1003914;-74
2023/05/12 10:20:58;;;;;;;5.70;2.20;;;;;;;-128.00;-1.00;-1.00;105546;1251;1004377;-74
2023/05/12 10:23:26;;;;;;;2.10;1.90;;;;;;;-128.00;-1.00;-1.00;105655;1255;1004246;-74
2023/05/12 10:26:00;;;;;;;5.70;2.30;;;;;;;-128.00;-1.00;-1.00;105734;1252;1004650;-73
2023/05/12 10:28:27;;;;;;;7.60;2.20;;;;;;;-128.00;-1.00;-1.00;105732;1251;1061778;-75
2023/05/12 10:30:56;;;;;;;6.00;2.10;;;;;;;-128.00;-1.00;-1.00;105688;1251;1004233;-73
2023/05/12 10:33:23;;;;;;;3.60;1.90;;;;;;;-128.00;-1.00;-1.00;105710;1251;1060536;-73
2023/05/12 10:35:51;;;;;;;4.10;2.80;;;;;;;-128.00;-1.00;-1.00;105495;1251;1004382;-73
2023/05/12 10:38:21;;;;;;;4.20;2.20;;;;;;;-128.00;-1.00;-1.00;105750;1251;1003705;-73
2023/05/12 10:40:57;;;;;;;5.00;2.20;;;;;;;-128.00;-1.00;-1.00;105746;1251;1061180;-74
2023/05/12 10:43:26;;;;;;;3.30;2.80;;;;;;;-128.00;-1.00;-1.00;105737;1251;1056774;-73
2023/05/12 10:46:14;;;;;;;6.40;2.70;;;;;;;-128.00;-1.00;-1.00;105715;1251;1058446;-73
2023/05/12 10:49:02;;;;;;;8.70;2.80;;;;;;;-128.00;-1.00;-1.00;105691;1253;1045287;-73
2023/05/12 10:51:32;;;;;;;4.00;2.20;;;;;;;-128.00;-1.00;-1.00;105687;1253;1046724;-74
2023/05/12 10:54:10;;;;;;;3.80;2.20;;;;;;;-128.00;-1.00;-1.00;105715;1251;1061201;-73
2023/05/12 10:56:37;;;;;;;4.00;2.20;;;;;;;-128.00;-1.00;-1.00;105716;1255;1055299;-72
2023/05/12 10:59:06;;;;;;;2.50;1.90;;;;;;;-128.00;-1.00;-1.00;105679;1252;1003349;-72
2023/05/12 11:01:33;;;;;;;2.20;2.00;;;;;;;-128.00;-1.00;-1.00;105660;1251;1044795;-73
2023/05/12 11:04:10;;;;;;;6.70;2.40;;;;;;;-128.00;-1.00;-1.00;105674;1255;1005004;-73
2023/05/12 11:06:38;;;;;;;6.10;2.10;;;;;;;-128.00;-1.00;-1.00;105684;1251;1063293;-73
2023/05/12 11:09:04;;;;;;;6.00;2.00;;;;;;;-128.00;-1.00;-1.00;105688;1251;1004520;-72
2023/05/12 11:11:31;;;;;;;4.00;2.70;;;;;;;-128.00;-1.00;-1.00;105680;1251;1004714;-72
2023/05/12 11:13:59;;;;;;;2.40;2.00;;;;;;;-128.00;-1.00;-1.00;105676;1251;1004527;-72
2023/05/12 11:16:25;;;;;;;2.80;1.80;;;;;;;-128.00;-1.00;-1.00;105701;1251;1004271;-73
2023/05/12 11:19:04;;;;;;;2.80;2.20;;;;;;;-128.00;-1.00;-1.00;105736;1251;1004946;-73